Time;durP1;ratioP1;P1;durP2;ratioP2;P2;SDS_P1;SDS_P2;PMS_P1;PMS_P2;Temp;Humidity;BMP_temperature;BMP_pressure;BME280_temperature;BME280_humidity;BME280_pressure;Samples;Min_cycle;Max_cycle;Signal;HPM_P1;HPM_P2
2022/03/27 00:01:44;;;;;;;16.23;9.45;;;230.40;1792.00;;;;;;4961369;28;20030;-61
2022/03/27 00:04:09;;;;;;;15.40;8.75;;;230.50;1766.40;;;;;;4960718;28;20470;-60
2022/03/27 00:06:35;;;;;;;17.58;7.82;;;230.40;1792.00;;;;;;4960201;28;20042;-63
2022/03/27 00:09:01;;;;;;;16.30;9.18;;;230.50;1766.40;;;;;;4959638;28;20023;-61
2022/03/27 00:11:30;;;;;;;17.98;9.80;;;230.40;1792.00;;;;;;4959639;28;20031;-61
2022/03/27 00:13:59;;;;;;;15.52;8.57;;;205.60;1843.20;;;;;;4955873;28;20036;-60
2022/03/27 00:16:25;;;;;;;14.02;8.63;;;205.50;1868.80;;;;;;4969806;28;20046;-62
2022/03/27 00:18:51;;;;;;;16.23;10.27;;;205.40;1868.80;;;;;;4970376;28;20026;-63
2022/03/27 00:21:19;;;;;;;16.27;8.77;;;205.40;1868.80;;;;;;4969830;28;20086;-62
2022/03/27 00:23:44;;;;;;;13.05;8.00;;;205.40;1868.80;;;;;;4970178;28;20055;-65
2022/03/27 00:26:10;;;;;;;12.48;7.93;;;205.50;1817.60;;;;;;4970171;28;20030;-64
2022/03/27 00:28:37;;;;;;;16.40;9.13;;;205.50;1843.20;;;;;;4969993;28;20027;-61
2022/03/27 00:31:09;;;;;;;19.65;8.90;;;205.50;1843.20;;;;;;4964787;28;20055;-60
2022/03/27 00:33:35;;;;;;;13.07;9.05;;;205.40;1868.80;;;;;;4970295;28;20433;-65
2022/03/27 00:36:03;;;;;;;17.42;11.70;;;205.30;1894.40;;;;;;4970152;28;20035;-61
2022/03/27 00:38:29;;;;;;;15.80;8.85;;;205.10;1920.00;;;;;;4971252;28;20541;-62
2022/03/27 00:40:56;;;;;;;14.38;9.70;;;205.20;1894.40;;;;;;4959659;28;20046;-62
2022/03/27 00:43:23;;;;;;;17.27;10.63;;;205.10;1920.00;;;;;;4954140;29;20075;-61
2022/03/27 00:45:50;;;;;;;16.92;10.60;;;205.10;1945.60;;;;;;4953932;29;20060;-65
2022/03/27 00:48:18;;;;;;;15.07;9.35;;;205.00;1945.60;;;;;;4954069;28;20036;-64
2022/03/27 00:50:45;;;;;;;14.10;8.85;;;204.90;1971.20;;;;;;4971498;28;20043;-61
2022/03/27 00:53:11;;;;;;;18.40;10.20;;;204.90;1945.60;;;;;;4965206;28;20086;-61
2022/03/27 00:55:38;;;;;;;14.95;10.07;;;204.90;1945.60;;;;;;4971073;28;20034;-62
2022/03/27 00:58:04;;;;;;;14.07;8.23;;;205.00;1945.60;;;;;;4973282;28;20105;-62
2022/03/27 01:00:39;;;;;;;14.93;8.80;;;204.90;1945.60;;;;;;4973138;28;20031;-61
2022/03/27 01:03:11;;;;;;;18.67;8.48;;;204.90;1945.60;;;;;;4973313;28;20030;-63
2022/03/27 01:05:37;;;;;;;11.43;8.25;;;204.90;1920.00;;;;;;4973092;28;20035;-63
2022/03/27 01:08:09;;;;;;;14.48;7.53;;;205.00;1894.40;;;;;;4973181;28;20470;-62
2022/03/27 01:10:37;;;;;;;14.43;6.82;;;205.10;1868.80;;;;;;4972965;28;20045;-63
2022/03/27 01:13:04;;;;;;;11.82;6.70;;;205.20;1843.20;;;;;;4972756;28;20110;-62
2022/03/27 01:15:31;;;;;;;12.52;7.70;;;205.20;1843.20;;;;;;4969365;28;20043;-63
2022/03/27 01:17:57;;;;;;;12.95;7.80;;;205.00;1843.20;;;;;;4953662;29;20023;-61
2022/03/27 01:20:31;;;;;;;21.33;15.35;;;205.20;1843.20;;;;;;4953665;29;20035;-62
2022/03/27 01:22:57;;;;;;;16.08;7.82;;;205.20;1843.20;;;;;;4953520;29;20031;-62
2022/03/27 01:25:23;;;;;;;15.55;9.35;;;205.20;1843.20;;;;;;4953720;29;20034;-61
2022/03/27 01:27:48;;;;;;;12.63;9.50;;;205.10;1868.80;;;;;;4953433;29;20041;-64
2022/03/27 01:30:14;;;;;;;14.80;9.43;;;205.10;1894.40;;;;;;4953227;29;20178;-62
2022/03/27 01:32:40;;;;;;;11.50;8.30;;;204.90;1920.00;;;;;;4953230;29;20597;-62
2022/03/27 01:35:07;;;;;;;18.08;8.38;;;180.10;1971.20;;;;;;4953357;29;20577;-64
2022/03/27 01:37:32;;;;;;;16.88;8.95;;;180.10;1971.20;;;;;;4953273;29;20794;-63
2022/03/27 01:39:58;;;;;;;15.23;9.02;;;180.10;1996.80;;;;;;4953176;29;20027;-63
2022/03/27 01:42:24;;;;;;;14.23;9.48;;;180.00;1996.80;;;;;;4953189;29;20035;-61
2022/03/27 01:44:50;;;;;;;16.33;8.13;;;180.00;1971.20;;;;;;4952738;29;20045;-63
2022/03/27 01:47:15;;;;;;;14.65;9.00;;;180.10;1945.60;;;;;;4952559;29;20055;-64
2022/03/27 01:49:42;;;;;;;16.85;8.77;;;180.10;1945.60;;;;;;4952494;28;20102;-61
2022/03/27 01:52:08;;;;;;;15.43;9.77;;;180.10;1996.80;;;;;;4953001;29;20090;-65
2022/03/27 01:54:34;;;;;;;15.63;10.13;;;180.00;2022.40;;;;;;4952964;29;20834;-65
2022/03/27 01:57:00;;;;;;;21.77;10.73;;;179.80;2073.60;;;;;;4952677;29;20066;-65
2022/03/27 01:59:25;;;;;;;12.60;8.68;;;179.70;2099.20;;;;;;4952761;29;20055;-61
2022/03/27 02:01:51;;;;;;;13.07;7.75;;;179.80;2022.40;;;;;;4953092;29;20062;-67
2022/03/27 02:04:17;;;;;;;18.23;10.13;;;179.90;1996.80;;;;;;4952517;29;20082;-64
2022/03/27 02:06:43;;;;;;;22.42;10.23;;;180.00;1971.20;;;;;;4952904;29;20031;-66
2022/03/27 02:09:10;;;;;;;14.20;8.38;;;180.10;1945.60;;;;;;4952351;29;20039;-66
2022/03/27 02:11:36;;;;;;;16.27;9.00;;;180.10;1945.60;;;;;;4952663;29;20027;-66
2022/03/27 02:14:02;;;;;;;15.57;10.25;;;180.10;1945.60;;;;;;4952644;28;20502;-67
2022/03/27 02:16:28;;;;;;;17.00;10.15;;;180.10;1996.80;;;;;;4971629;28;20098;-63
2022/03/27 02:18:54;;;;;;;18.50;12.98;;;179.80;2048.00;;;;;;4972048;28;20174;-64
2022/03/27 02:21:20;;;;;;;16.65;12.80;;;179.80;2048.00;;;;;;4971723;28;20069;-60
2022/03/27 02:23:46;;;;;;;18.02;11.88;;;179.80;2048.00;;;;;;4971681;28;20054;-62
2022/03/27 02:26:12;;;;;;;19.73;10.65;;;180.00;1971.20;;;;;;4971652;28;20486;-63
2022/03/27 02:28:40;;;;;;;18.83;9.80;;;180.10;1971.20;;;;;;4971352;28;20062;-62
2022/03/27 02:31:05;;;;;;;16.65;9.80;;;180.10;1945.60;;;;;;4971590;28;20401;-65
2022/03/27 02:33:31;;;;;;;16.27;10.25;;;180.10;1920.00;;;;;;4971557;28;20035;-65
2022/03/27 02:35:57;;;;;;;17.35;11.30;;;180.10;1945.60;;;;;;4968005;28;20050;-62
2022/03/27 02:38:23;;;;;;;18.30;10.55;;;204.80;1920.00;;;;;;4952506;29;20055;-64
2022/03/27 02:40:49;;;;;;;18.83;9.85;;;180.10;1945.60;;;;;;4951867;29;20049;-66
2022/03/27 02:43:14;;;;;;;15.27;9.85;;;180.10;1945.60;;;;;;4952087;29;20039;-65
2022/03/27 02:45:41;;;;;;;13.90;9.27;;;180.10;1945.60;;;;;;4951652;29;20039;-67
2022/03/27 02:48:07;;;;;;;14.95;8.23;;;180.10;1971.20;;;;;;4951897;29;20121;-63
2022/03/27 02:50:33;;;;;;;13.65;8.73;;;180.10;1971.20;;;;;;4952159;29;20389;-65
2022/03/27 02:52:59;;;;;;;12.35;8.02;;;180.00;1971.20;;;;;;4951767;29;20043;-65
2022/03/27 02:55:26;;;;;;;14.23;8.90;;;180.10;1945.60;;;;;;4951950;29;20035;-64
2022/03/27 02:57:53;;;;;;;14.55;9.60;;;204.80;1920.00;;;;;;4951899;29;20493;-66
2022/03/27 03:00:19;;;;;;;16.70;8.57;;;180.10;1945.60;;;;;;4951473;29;20035;-62
2022/03/27 03:02:45;;;;;;;15.45;8.57;;;180.00;1945.60;;;;;;4951070;28;20027;-63
2022/03/27 03:05:11;;;;;;;11.15;8.05;;;180.00;1971.20;;;;;;4951338;29;20535;-66
2022/03/27 03:07:43;;;;;;;17.27;8.55;;;180.00;1971.20;;;;;;4951576;29;20067;-62
2022/03/27 03:10:10;;;;;;;14.32;8.50;;;180.00;1945.60;;;;;;4951318;29;20449;-65
2022/03/27 03:12:36;;;;;;;15.63;9.25;;;180.10;1920.00;;;;;;4951475;29;20518;-63
2022/03/27 03:15:03;;;;;;;20.02;9.40;;;204.80;1894.40;;;;;;4951304;29;20043;-64
2022/03/27 03:17:29;;;;;;;13.02;8.85;;;204.90;1868.80;;;;;;4951235;29;20118;-62
2022/03/27 03:19:55;;;;;;;15.02;8.13;;;205.10;1843.20;;;;;;4951651;29;20031;-62
2022/03/27 03:22:21;;;;;;;13.48;6.90;;;205.30;1817.60;;;;;;4951365;29;20091;-62
2022/03/27 03:24:47;;;;;;;14.88;8.75;;;205.50;1792.00;;;;;;4951134;29;20098;-62
2022/03/27 03:27:13;;;;;;;13.88;6.68;;;205.60;1792.00;;;;;;4951534;29;20114;-63
2022/03/27 03:29:39;;;;;;;13.35;7.57;;;205.70;1766.40;;;;;;4951106;29;20081;-62
2022/03/27 03:32:05;;;;;;;12.27;6.93;;;205.70;1766.40;;;;;;4951443;29;20034;-61
2022/03/27 03:34:31;;;;;;;11.48;7.13;;;230.40;1792.00;;;;;;4951278;29;20043;-65
2022/03/27 03:36:56;;;;;;;16.48;7.82;;;230.40;1766.40;;;;;;4951136;29;20530;-62
2022/03/27 03:39:22;;;;;;;13.52;7.93;;;230.50;1766.40;;;;;;4951397;29;20034;-61
2022/03/27 03:41:48;;;;;;;13.60;7.72;;;230.40;1766.40;;;;;;4951133;29;21078;-61
2022/03/27 03:44:14;;;;;;;14.05;6.88;;;230.40;1766.40;;;;;;4951145;29;20402;-61
2022/03/27 03:46:40;;;;;;;15.27;6.68;;;230.40;1766.40;;;;;;4951040;29;20035;-63
2022/03/27 03:49:06;;;;;;;12.93;7.60;;;230.40;1766.40;;;;;;4951234;29;20043;-64
2022/03/27 03:51:36;;;;;;;13.70;7.75;;;230.40;1766.40;;;;;;4951291;29;20482;-62
2022/03/27 03:54:04;;;;;;;16.67;7.28;;;230.40;1766.40;;;;;;4942663;29;20489;-65
2022/03/27 03:56:29;;;;;;;14.38;6.65;;;230.40;1766.40;;;;;;4951015;28;20083;-63
2022/03/27 03:58:55;;;;;;;13.50;6.50;;;230.50;1740.80;;;;;;4950983;29;20422;-61
2022/03/27 04:01:21;;;;;;;16.50;7.70;;;230.60;1740.80;;;;;;4951134;29;20038;-64
2022/03/27 04:03:47;;;;;;;14.60;7.50;;;230.50;1766.40;;;;;;4950724;29;20082;-62
2022/03/27 04:06:12;;;;;;;18.45;13.25;;;230.50;1740.80;;;;;;4951081;29;20385;-66
2022/03/27 04:08:38;;;;;;;14.77;9.30;;;205.70;1766.40;;;;;;4950785;29;20027;-63
2022/03/27 04:11:04;;;;;;;14.32;8.75;;;205.40;1792.00;;;;;;4950963;29;20039;-64
2022/03/27 04:13:30;;;;;;;15.40;7.97;;;205.20;1843.20;;;;;;4952378;28;20118;-64
2022/03/27 04:15:56;;;;;;;11.20;7.47;;;205.10;1868.80;;;;;;4954328;29;20130;-63
2022/03/27 04:18:22;;;;;;;16.95;9.40;;;205.10;1843.20;;;;;;4954883;29;20466;-61
2022/03/27 04:20:48;;;;;;;15.45;9.27;;;205.00;1894.40;;;;;;4954493;29;20394;-65
2022/03/27 04:23:14;;;;;;;13.70;8.73;;;204.80;1920.00;;;;;;4954823;29;20155;-64
2022/03/27 04:25:40;;;;;;;13.90;8.15;;;204.80;1920.00;;;;;;4953687;29;20118;-65
2022/03/27 04:28:07;;;;;;;12.82;8.23;;;204.90;1894.40;;;;;;4954407;29;20035;-62
2022/03/27 04:30:34;;;;;;;11.27;7.72;;;205.10;1868.80;;;;;;4954351;29;20127;-66
2022/03/27 04:33:00;;;;;;;11.70;8.05;;;205.10;1894.40;;;;;;4954294;29;20043;-65
2022/03/27 04:35:26;;;;;;;14.20;7.68;;;205.20;1868.80;;;;;;4954267;29;20093;-63
2022/03/27 04:37:51;;;;;;;14.20;8.15;;;205.30;1868.80;;;;;;4954554;29;20039;-65
2022/03/27 04:40:18;;;;;;;13.05;8.80;;;205.30;1843.20;;;;;;4957398;28;20027;-64
2022/03/27 04:42:45;;;;;;;16.35;8.82;;;205.00;1945.60;;;;;;4973430;28;20074;-63
2022/03/27 04:45:11;;;;;;;20.88;18.63;;;204.90;1945.60;;;;;;4973234;28;20063;-63
2022/03/27 04:47:38;;;;;;;19.50;13.43;;;204.80;1996.80;;;;;;4973187;28;20031;-61
2022/03/27 04:50:04;;;;;;;22.33;11.75;;;205.00;1971.20;;;;;;4973480;28;20042;-63
2022/03/27 04:52:31;;;;;;;13.05;8.88;;;204.90;1971.20;;;;;;4973435;28;20031;-65
2022/03/27 04:54:56;;;;;;;15.35;9.20;;;204.90;1996.80;;;;;;4973393;28;20482;-63
2022/03/27 04:57:22;;;;;;;16.45;9.85;;;204.90;1945.60;;;;;;4974962;28;20041;-68
2022/03/27 04:59:49;;;;;;;15.10;8.82;;;205.00;1971.20;;;;;;4974902;28;20054;-70
2022/03/27 05:02:15;;;;;;;20.85;9.35;;;204.90;1996.80;;;;;;4975441;28;20086;-68
2022/03/27 05:04:41;;;;;;;17.17;9.05;;;180.10;2048.00;;;;;;4974525;28;20117;-68
2022/03/27 05:07:07;;;;;;;16.73;8.18;;;180.10;2099.20;;;;;;4974744;28;20046;-67
2022/03/27 05:09:33;;;;;;;13.32;8.77;;;204.80;2073.60;;;;;;4975030;28;20069;-66
2022/03/27 05:11:59;;;;;;;14.25;10.75;;;205.10;1996.80;;;;;;4975058;28;20031;-66
2022/03/27 05:14:25;;;;;;;17.50;12.93;;;205.40;1920.00;;;;;;4975354;28;20113;-67
2022/03/27 05:16:50;;;;;;;18.85;14.70;;;205.70;1868.80;;;;;;4975130;28;20499;-68
2022/03/27 05:19:16;;;;;;;16.55;10.18;;;230.50;1868.80;;;;;;4975278;28;20035;-66
2022/03/27 05:21:42;;;;;;;14.88;9.15;;;230.70;1843.20;;;;;;4975932;28;20528;-66
2022/03/27 05:24:09;;;;;;;19.70;9.93;;;230.70;1843.20;;;;;;4975542;28;20026;-63
2022/03/27 05:26:35;;;;;;;17.17;13.00;;;230.80;1843.20;;;;;;4975420;28;20034;-70
2022/03/27 05:29:04;;;;;;;20.02;11.75;;;256.10;1817.60;;;;;;4975405;28;20027;-66
2022/03/27 05:31:30;;;;;;;13.15;8.80;;;230.90;1843.20;;;;;;4975462;28;20039;-76
2022/03/27 05:33:56;;;;;;;17.25;10.63;;;231.00;1766.40;;;;;;4976147;28;20054;-64
2022/03/27 05:36:21;;;;;;;14.25;8.73;;;231.10;1817.60;;;;;;4976575;28;20053;-67
2022/03/27 05:38:47;;;;;;;19.63;10.05;;;231.10;1817.60;;;;;;4975220;28;20498;-65
2022/03/27 05:41:13;;;;;;;13.43;9.48;;;231.10;1817.60;;;;;;4975459;28;20023;-68
2022/03/27 05:43:39;;;;;;;15.82;10.60;;;256.10;1766.40;;;;;;4975146;28;20500;-75
2022/03/27 05:46:05;;;;;;;16.90;10.57;;;256.40;1740.80;;;;;;4975238;28;20049;-66
2022/03/27 05:48:31;;;;;;;17.50;11.48;;;281.70;1715.20;;;;;;4975307;28;20430;-72
2022/03/27 05:50:57;;;;;;;38.22;34.28;;;282.50;1638.40;;;;;;4975372;28;20401;-69
2022/03/27 05:53:23;;;;;;;19.45;11.38;;;307.50;1664.00;;;;;;4975700;28;20026;-68
2022/03/27 05:55:49;;;;;;;17.65;11.90;;;308.00;1612.80;;;;;;4975699;28;20042;-66
2022/03/27 05:58:16;;;;;;;17.42;11.88;;;333.20;1561.60;;;;;;4975886;28;20421;-68
2022/03/27 06:00:42;;;;;;;15.07;10.93;;;333.40;1587.20;;;;;;4975176;28;20035;-67
2022/03/27 06:03:08;;;;;;;17.73;11.85;;;358.80;1484.80;;;;;;4974703;28;20081;-67
2022/03/27 06:05:33;;;;;;;15.85;10.88;;;384.40;1408.00;;;;;;4975428;28;20113;-68
2022/03/27 06:07:59;;;;;;;15.32;11.30;;;409.90;1356.80;;;;;;4972095;28;20038;-66
2022/03/27 06:10:28;;;;;;;16.52;12.27;;;435.40;1305.60;;;;;;4971961;28;20035;-62
2022/03/27 06:12:55;;;;;;;18.80;11.75;;;461.00;1254.40;;;;;;4964128;28;20541;-63
2022/03/27 06:15:22;;;;;;;20.75;12.77;;;461.10;1254.40;;;;;;4971665;28;20093;-63
2022/03/27 06:17:49;;;;;;;17.60;12.77;;;486.70;1177.60;;;;;;4971337;28;20031;-62
2022/03/27 06:20:17;;;;;;;23.48;14.20;;;512.20;1126.40;;;;;;4971819;28;20692;-65
2022/03/27 06:22:44;;;;;;;21.60;14.43;;;512.60;1126.40;;;;;;4971681;28;20023;-65
2022/03/27 06:25:12;;;;;;;19.67;15.65;;;512.80;1100.80;;;;;;4971507;28;20027;-64
2022/03/27 06:27:38;;;;;;;28.38;14.75;;;537.70;1100.80;;;;;;4971471;28;20023;-62
2022/03/27 06:30:08;;;;;;;30.83;16.40;;;538.20;1075.20;;;;;;4971267;28;20034;-65
2022/03/27 06:32:36;;;;;;;18.27;15.05;;;538.40;1075.20;;;;;;4971248;28;20105;-64
2022/03/27 06:35:04;;;;;;;18.58;16.50;;;563.20;1049.60;;;;;;4971348;28;20027;-67
2022/03/27 06:37:30;;;;;;;22.02;16.38;;;563.40;1049.60;;;;;;4971159;28;20086;-63
2022/03/27 06:39:56;;;;;;;19.83;16.27;;;563.70;1024.00;;;;;;4960288;28;20027;-64
2022/03/27 06:42:24;;;;;;;19.67;16.30;;;563.90;1024.00;;;;;;4951960;29;20028;-66
2022/03/27 06:44:51;;;;;;;19.17;15.88;;;564.10;998.40;;;;;;4951790;29;20131;-64
2022/03/27 06:47:18;;;;;;;20.83;16.27;;;588.80;998.40;;;;;;4951800;29;20035;-64
2022/03/27 06:49:44;;;;;;;20.58;16.25;;;564.10;998.40;;;;;;4951781;29;20031;-65
2022/03/27 06:52:10;;;;;;;18.70;16.23;;;588.80;998.40;;;;;;4951896;29;20034;-66
2022/03/27 06:54:36;;;;;;;23.50;17.38;;;589.20;972.80;;;;;;4951674;29;20062;-64
2022/03/27 06:57:02;;;;;;;21.73;15.27;;;589.60;972.80;;;;;;4951700;29;20042;-63
2022/03/27 07:03:01;;;;;;;18.13;14.98;;;615.00;947.20;;;;;;4951426;29;20023;-64
2022/03/27 07:04:57;;;;;;;19.80;15.88;;;665.90;896.00;;;;;;4943915;29;20556;-65
2022/03/27 07:07:23;;;;;;;17.30;15.32;;;666.20;870.40;;;;;;4951878;29;20113;-68
2022/03/27 07:09:49;;;;;;;18.38;16.48;;;691.60;844.80;;;;;;4951253;29;20047;-65
2022/03/27 07:12:14;;;;;;;20.23;17.35;;;692.10;844.80;;;;;;4951314;29;20429;-65
2022/03/27 07:14:40;;;;;;;19.23;15.23;;;692.10;819.20;;;;;;4950977;29;20489;-67
2022/03/27 07:17:06;;;;;;;18.85;16.02;;;717.50;819.20;;;;;;4951554;29;20028;-66
2022/03/27 07:19:32;;;;;;;18.70;16.70;;;717.40;819.20;;;;;;4951554;29;20030;-66
2022/03/27 07:21:58;;;;;;;26.48;18.10;;;743.10;819.20;;;;;;4951281;29;20035;-66
2022/03/27 07:24:24;;;;;;;19.52;16.80;;;742.70;819.20;;;;;;4951602;29;20489;-66
2022/03/27 07:26:50;;;;;;;19.42;17.35;;;742.60;819.20;;;;;;4951172;29;20475;-66
2022/03/27 07:29:16;;;;;;;18.63;16.73;;;742.50;819.20;;;;;;4951225;29;20033;-65
2022/03/27 07:31:42;;;;;;;23.42;18.10;;;742.50;819.20;;;;;;4951309;29;20115;-66
2022/03/27 07:34:07;;;;;;;21.40;18.02;;;743.00;819.20;;;;;;4951055;29;20074;-65
2022/03/27 07:36:34;;;;;;;19.73;17.70;;;742.90;793.60;;;;;;4951306;29;20517;-66
2022/03/27 07:39:00;;;;;;;27.70;20.85;;;743.10;793.60;;;;;;4951157;29;20028;-64
2022/03/27 07:41:26;;;;;;;23.13;18.35;;;743.30;768.00;;;;;;4951290;29;20517;-68
2022/03/27 07:43:51;;;;;;;19.95;17.85;;;743.20;768.00;;;;;;4956600;28;20073;-68
2022/03/27 07:46:17;;;;;;;23.67;18.17;;;768.50;742.40;;;;;;4970100;28;20111;-67
2022/03/27 07:48:43;;;;;;;38.90;34.80;;;768.50;768.00;;;;;;4974545;28;20093;-67
2022/03/27 07:51:08;;;;;;;22.45;18.98;;;768.50;742.40;;;;;;4964755;28;20026;-65
2022/03/27 07:53:35;;;;;;;19.95;18.02;;;768.00;768.00;;;;;;4967305;28;20082;-65
2022/03/27 07:56:01;;;;;;;20.20;18.17;;;768.50;742.40;;;;;;4939291;29;20039;-64
2022/03/27 07:58:26;;;;;;;26.40;20.17;;;768.20;768.00;;;;;;4953745;28;20134;-66
2022/03/27 08:00:52;;;;;;;24.55;22.08;;;768.90;742.40;;;;;;4957436;29;20035;-67
2022/03/27 08:03:18;;;;;;;21.85;19.52;;;819.20;742.40;;;;;;4964686;28;20031;-65
2022/03/27 08:05:43;;;;;;;24.67;22.25;;;819.30;716.80;;;;;;4976869;28;20471;-65
2022/03/27 08:08:09;;;;;;;26.45;20.45;;;794.50;742.40;;;;;;4976566;28;20027;-67
2022/03/27 08:10:35;;;;;;;28.55;24.05;;;793.70;716.80;;;;;;4976663;28;20478;-66
2022/03/27 08:13:01;;;;;;;25.13;21.60;;;794.20;716.80;;;;;;4969011;28;20046;-64
2022/03/27 08:15:27;;;;;;;28.50;25.58;;;819.30;691.20;;;;;;4958357;28;20102;-67
2022/03/27 08:17:53;;;;;;;30.02;26.13;;;794.10;716.80;;;;;;4958475;29;20051;-66
2022/03/27 08:20:21;;;;;;;21.65;19.05;;;793.90;716.80;;;;;;4968977;28;20027;-61
2022/03/27 08:22:47;;;;;;;19.67;17.67;;;768.80;716.80;;;;;;4976752;28;20098;-60
2022/03/27 08:26:55;;;;;;;24.42;18.67;;;819.60;691.20;;;;;;4977304;28;20045;-61
2022/03/27 08:27:59;;;;;;;23.60;21.20;;;819.90;691.20;;;;;;4977171;28;20462;-60
2022/03/27 08:30:24;;;;;;;21.85;18.00;;;819.60;691.20;;;;;;4968796;28;20043;-60
2022/03/27 08:32:51;;;;;;;20.50;18.50;;;845.60;665.60;;;;;;4966162;28;20122;-62
2022/03/27 08:35:16;;;;;;;19.60;17.50;;;870.50;640.00;;;;;;4958014;29;20037;-63
2022/03/27 08:37:42;;;;;;;26.00;23.48;;;871.10;640.00;;;;;;4962999;28;20106;-61
2022/03/27 08:40:09;;;;;;;38.53;29.73;;;896.70;614.40;;;;;;4977204;28;20537;-61
2022/03/27 08:42:35;;;;;;;31.23;25.90;;;896.70;614.40;;;;;;4977068;28;20037;-59
2022/03/27 08:45:01;;;;;;;30.65;27.42;;;896.90;614.40;;;;;;4977427;28;20054;-61
2022/03/27 08:47:30;;;;;;;33.35;28.30;;;896.20;640.00;;;;;;4977043;28;20465;-61
2022/03/27 08:50:13;;;;;;;21.42;18.67;;;896.00;640.00;;;;;;4977318;28;20054;-61
2022/03/27 08:52:48;;;;;;;21.73;18.27;;;870.70;640.00;;;;;;4977082;28;20030;-62
2022/03/27 08:55:34;;;;;;;23.30;19.60;;;870.60;665.60;;;;;;4977105;28;20034;-62
2022/03/27 08:58:00;;;;;;;22.40;19.33;;;845.00;691.20;;;;;;4976823;28;20039;-59
2022/03/27 09:00:29;;;;;;;25.50;18.95;;;819.30;691.20;;;;;;4974466;28;20030;-60
2022/03/27 09:02:59;;;;;;;23.20;19.23;;;794.40;716.80;;;;;;4973964;28;20030;-58
2022/03/27 09:05:25;;;;;;;24.65;18.80;;;768.20;742.40;;;;;;4970816;28;20046;-59
2022/03/27 09:07:53;;;;;;;28.42;21.92;;;717.50;768.00;;;;;;4973112;28;20035;-58
2022/03/27 09:10:22;;;;;;;25.33;20.50;;;691.40;793.60;;;;;;4973986;28;20054;-61
2022/03/27 09:12:48;;;;;;;25.23;20.05;;;666.40;793.60;;;;;;4973642;28;20058;-59
2022/03/27 09:15:16;;;;;;;27.45;18.80;;;640.90;793.60;;;;;;4973893;28;20441;-58
2022/03/27 09:17:59;;;;;;;40.08;27.33;;;640.20;819.20;;;;;;4973720;28;20058;-57
2022/03/27 09:20:40;;;;;;;31.38;20.15;;;640.10;844.80;;;;;;4973696;28;20038;-62
2022/03/27 09:23:30;;;;;;;24.17;19.85;;;615.30;870.40;;;;;;4973683;28;20485;-60
2022/03/27 09:26:02;;;;;;;27.88;19.75;;;615.10;870.40;;;;;;4973514;28;20089;-57
2022/03/27 09:28:30;;;;;;;45.42;31.98;;;614.80;870.40;;;;;;4973393;28;20429;-58
2022/03/27 09:30:58;;;;;;;33.72;27.88;;;614.50;896.00;;;;;;4973421;28;20093;-58
2022/03/27 09:33:48;;;;;;;34.15;24.25;;;589.70;896.00;;;;;;4973428;28;20493;-60
2022/03/27 09:36:21;;;;;;;39.47;27.90;;;589.40;896.00;;;;;;4973464;28;20136;-57
2022/03/27 09:39:02;;;;;;;40.45;31.15;;;589.30;921.60;;;;;;4973164;28;20034;-58
2022/03/27 09:41:47;;;;;;;48.17;38.00;;;589.10;921.60;;;;;;4973163;28;20022;-58
2022/03/27 09:44:41;;;;;;;30.90;24.83;;;589.50;921.60;;;;;;4973425;28;20031;-57
2022/03/27 09:47:12;;;;;;;21.88;16.40;;;589.30;896.00;;;;;;4967079;28;20500;-61
2022/03/27 09:49:41;;;;;;;24.90;17.48;;;588.80;947.20;;;;;;4973103;28;20110;-58
2022/03/27 09:52:08;;;;;;;24.58;18.70;;;588.80;947.20;;;;;;4973177;28;20089;-58
2022/03/27 09:54:54;;;;;;;31.65;21.42;;;589.10;921.60;;;;;;4973312;28;20411;-56
2022/03/27 09:57:21;;;;;;;28.40;19.88;;;589.20;896.00;;;;;;4972978;28;20074;-55
2022/03/27 09:59:47;;;;;;;25.35;17.50;;;588.90;896.00;;;;;;4972930;28;20055;-57
2022/03/27 10:02:26;;;;;;;29.00;22.45;;;588.80;921.60;;;;;;4973105;28;20061;-56
2022/03/27 10:04:59;;;;;;;29.58;19.42;;;588.80;921.60;;;;;;4972939;28;20051;-57
2022/03/27 10:07:27;;;;;;;25.60;17.42;;;564.10;921.60;;;;;;4973188;28;20389;-57
2022/03/27 10:09:54;;;;;;;29.00;18.38;;;564.10;972.80;;;;;;4972956;28;20126;-57
2022/03/27 10:12:29;;;;;;;26.83;19.25;;;588.80;972.80;;;;;;4972002;28;20035;-55
2022/03/27 10:14:59;;;;;;;28.13;17.70;;;564.10;921.60;;;;;;4972714;28;20034;-58
2022/03/27 10:17:27;;;;;;;25.48;18.15;;;564.00;921.60;;;;;;4973004;28;20069;-57
2022/03/27 10:19:59;;;;;;;24.88;17.35;;;563.90;947.20;;;;;;4972987;28;20027;-57
2022/03/27 10:22:28;;;;;;;24.58;17.55;;;564.10;947.20;;;;;;4972936;28;20027;-56
2022/03/27 10:24:57;;;;;;;33.28;23.90;;;564.10;947.20;;;;;;4972742;28;20026;-55
2022/03/27 10:27:23;;;;;;;33.00;19.73;;;563.90;947.20;;;;;;4972637;28;20426;-59
2022/03/27 10:29:50;;;;;;;29.40;19.42;;;564.00;947.20;;;;;;4972178;28;20085;-57
2022/03/27 10:32:15;;;;;;;24.88;17.30;;;564.00;947.20;;;;;;4972420;28;20035;-58
2022/03/27 10:35:02;;;;;;;28.00;19.27;;;564.10;972.80;;;;;;4972401;28;20031;-59
2022/03/27 10:37:40;;;;;;;27.17;19.80;;;588.80;921.60;;;;;;4972213;28;20529;-57
2022/03/27 10:40:32;;;;;;;26.67;18.48;;;564.10;921.60;;;;;;4972362;28;20031;-61
2022/03/27 10:43:05;;;;;;;23.42;18.77;;;563.90;921.60;;;;;;4972273;28;20363;-60
2022/03/27 10:45:32;;;;;;;;;;;564.00;972.80;;;;;;4972387;28;20030;-59
2022/03/27 10:48:16;;;;;;;31.80;22.17;;;563.90;947.20;;;;;;4972021;28;19906;-58
2022/03/27 10:50:49;;;;;;;29.58;19.85;;;563.70;947.20;;;;;;4971896;28;20030;-58
2022/03/27 10:53:19;;;;;;;25.00;17.50;;;563.80;972.80;;;;;;4972111;28;20381;-58
2022/03/27 10:55:48;;;;;;;20.95;15.85;;;563.90;998.40;;;;;;4972020;28;20123;-57
2022/03/27 10:58:41;;;;;;;29.20;19.52;;;563.70;947.20;;;;;;4972218;28;20435;-56
2022/03/27 11:01:32;;;;;;;29.80;16.93;;;563.60;972.80;;;;;;4956544;28;20385;-55
2022/03/27 11:04:09;;;;;;;28.42;20.50;;;563.60;947.20;;;;;;4971439;28;20786;-59
2022/03/27 11:06:47;;;;;;;22.38;14.48;;;563.40;947.20;;;;;;4971834;28;20118;-55
2022/03/27 11:09:31;;;;;;;30.23;17.35;;;563.50;947.20;;;;;;4971736;28;20030;-58
2022/03/27 11:11:58;;;;;;;48.50;29.40;;;563.60;947.20;;;;;;4971235;28;20098;-59
2022/03/27 11:14:53;;;;;;;23.58;16.55;;;563.20;972.80;;;;;;4971767;28;20473;-59
2022/03/27 11:17:35;;;;;;;29.17;21.77;;;563.40;998.40;;;;;;4962899;28;20453;-59
2022/03/27 11:20:04;;;;;;;25.75;16.40;;;538.30;972.80;;;;;;4971620;28;20457;-60
2022/03/27 11:22:43;;;;;;;24.13;16.52;;;538.50;972.80;;;;;;4970493;28;20520;-60
2022/03/27 11:25:37;;;;;;;36.05;24.52;;;563.40;998.40;;;;;;4971202;28;20504;-60
2022/03/27 11:28:08;;;;;;;25.52;18.67;;;538.50;947.20;;;;;;4971573;28;20382;-58
2022/03/27 11:30:48;;;;;;;26.52;17.90;;;563.50;1024.00;;;;;;4971240;28;20560;-62
2022/03/27 11:33:19;;;;;;;23.58;16.40;;;563.60;998.40;;;;;;4971535;28;20023;-59
2022/03/27 11:36:11;;;;;;;24.10;15.30;;;563.70;998.40;;;;;;4971494;28;20030;-58
2022/03/27 11:38:52;;;;;;;22.73;15.05;;;563.70;972.80;;;;;;4971175;28;20031;-59
2022/03/27 11:41:30;;;;;;;21.88;16.02;;;563.80;1049.60;;;;;;4971223;28;20478;-57
2022/03/27 11:44:18;;;;;;;24.13;14.40;;;563.60;998.40;;;;;;4971380;28;20038;-58
2022/03/27 11:46:52;;;;;;;20.17;14.02;;;563.60;998.40;;;;;;4892666;29;20061;-56
2022/03/27 11:49:19;;;;;;;27.83;15.65;;;563.60;1024.00;;;;;;4892794;29;20071;-57
2022/03/27 11:51:46;;;;;;;22.85;14.70;;;563.70;998.40;;;;;;4892924;29;20128;-60
2022/03/27 11:54:19;;;;;;;21.70;14.52;;;563.60;1024.00;;;;;;4893084;29;20029;-59
2022/03/27 11:56:59;;;;;;;23.90;15.60;;;563.60;998.40;;;;;;4893017;29;20466;-61
2022/03/27 11:59:28;;;;;;;21.55;15.00;;;563.70;998.40;;;;;;4892984;29;20033;-57
2022/03/27 12:01:56;;;;;;;26.85;16.42;;;563.30;972.80;;;;;;4892859;29;20528;-60
2022/03/27 12:04:22;;;;;;;22.75;15.50;;;563.30;972.80;;;;;;4892573;29;20500;-60
2022/03/27 12:06:57;;;;;;;25.10;16.45;;;563.20;1024.00;;;;;;4892394;29;20064;-59
2022/03/27 12:09:31;;;;;;;26.88;17.15;;;538.50;1024.00;;;;;;4892837;29;20068;-60
2022/03/27 12:12:12;;;;;;;22.63;14.55;;;563.50;1075.20;;;;;;4874984;29;20063;-56
2022/03/27 12:14:57;;;;;;;26.17;17.05;;;563.60;1024.00;;;;;;4873949;29;20041;-56
2022/03/27 12:17:25;;;;;;;24.88;13.88;;;563.30;1024.00;;;;;;4874018;29;20124;-57